Time;durP1;ratioP1;P1;durP2;ratioP2;P2;SDS_P1;SDS_P2;PMS_P1;PMS_P2;Temp;Humidity;BMP_temperature;BMP_pressure;BME280_temperature;BME280_humidity;BME280_pressure;Samples;Min_cycle;Max_cycle;Signal;HPM_P1;HPM_P2
2022/07/22 00:01:24;;;;;;;2.60;1.17;;;;;;;;;;21067743;28;20212;-72
2022/07/22 00:11:26;;;;;;;2.88;1.60;;;;;;;;;;21067936;28;20273;-73
2022/07/22 00:21:27;;;;;;;2.30;1.60;;;;;;;;;;21121933;22;20227;-71
2022/07/22 00:31:30;;;;;;;2.15;1.65;;;;;;;;;;21135722;28;20280;-71
2022/07/22 00:41:32;;;;;;;3.10;1.67;;;;;;;;;;21147827;28;20189;-71
2022/07/22 00:51:34;;;;;;;3.97;1.65;;;;;;;;;;21147501;28;20192;-70
2022/07/22 01:01:36;;;;;;;3.25;1.95;;;;;;;;;;21150976;27;20259;-70
2022/07/22 01:11:37;;;;;;;3.33;1.60;;;;;;;;;;21231606;27;20203;-70
2022/07/22 01:21:39;;;;;;;3.15;1.55;;;;;;;;;;21228354;27;20268;-70
2022/07/22 01:31:41;;;;;;;2.20;1.50;;;;;;;;;;21179889;27;20557;-70
2022/07/22 01:41:43;;;;;;;2.10;1.50;;;23.80;99.90;;;;;;21221131;27;20219;-70
2022/07/22 01:51:47;;;;;;;2.17;1.67;;;;;;;;;;21227362;27;20197;-71
2022/07/22 02:01:49;;;;;;;2.00;1.55;;;;;;;;;;21215882;27;20581;-71
2022/07/22 02:11:52;;;;;;;2.95;1.45;;;;;;;;;;21239859;27;20618;-71
2022/07/22 02:21:54;;;;;;;3.33;1.70;;;;;;;;;;21223185;27;20219;-71
2022/07/22 02:31:59;;;;;;;3.15;1.42;;;;;;;;;;21182051;27;20208;-70
2022/07/22 02:42:01;;;;;;;3.20;1.85;;;;;;;;;;21122307;28;20216;-71
2022/07/22 02:52:04;;;;;;;3.25;2.10;;;;;;;;;;21138109;28;20671;-70
2022/07/22 03:02:06;;;;;;;2.40;1.80;;;;;;;;;;21159397;27;20240;-70
2022/07/22 03:12:08;;;;;;;2.72;1.80;;;;;;;;;;21136305;28;20701;-71
2022/07/22 03:22:10;;;;;;;3.08;1.63;;;;;;;;;;21134331;28;20226;-70
2022/07/22 03:32:15;;;;;;;3.53;1.92;;;;;;;;;;21134975;28;20223;-70
2022/07/22 03:42:22;;;;;;;2.25;1.67;;;;;;;;;;21118898;28;20266;-71
2022/07/22 03:52:26;;;;;;;3.33;1.80;;;;;;;;;;21135211;28;20204;-73
2022/07/22 04:02:28;;;;;;;2.10;1.50;;;;;;;;;;21137636;28;20762;-73
2022/07/22 04:12:30;;;;;;;2.58;1.75;;;;;;;;;;21128956;28;20216;-74
2022/07/22 04:22:46;;;;;;;2.75;1.90;;;;;;;;;;21149247;28;20218;-74
2022/07/22 04:32:48;;;;;;;3.30;1.88;;;;;;;;;;21150477;27;20207;-73
2022/07/22 04:42:50;;;;;;;4.40;2.00;;;;;;;;;;21229621;27;20263;-73
2022/07/22 04:52:52;;;;;;;2.63;2.33;;;;;;;;;;21232302;27;20208;-74
2022/07/22 05:02:54;;;;;;;5.72;2.10;;;;;;;;;;21231281;27;20269;-74
2022/07/22 05:12:56;;;;;;;2.42;1.80;;;;;;;;;;21106033;28;20210;-74
2022/07/22 05:22:58;;;;;;;3.97;1.75;;;;;;;;;;21042153;28;20265;-74
2022/07/22 05:33:03;;;;;;;3.92;2.17;;;;;;;;;;21093998;28;20282;-75
2022/07/22 05:43:23;;;;;;;3.25;1.98;;;;;;;;;;21191537;27;20224;-76
2022/07/22 05:53:25;;;;;;;3.10;2.50;;;;;;;;;;21165159;27;20250;-75
2022/07/22 06:03:27;;;;;;;3.22;2.08;;;;;;;;;;21208910;27;20214;-76
2022/07/22 06:13:29;;;;;;;3.58;2.35;;;;;;;;;;21208780;27;20201;-76
2022/07/22 06:23:30;;;;;;;2.83;2.00;;;;;;;;;;21182766;27;20636;-73
2022/07/22 06:33:33;;;;;;;2.47;1.83;;;;;;;;;;21135927;28;20261;-73
2022/07/22 06:43:36;;;;;;;4.40;2.13;;;;;;;;;;21176939;27;20711;-76
2022/07/22 06:53:52;;;;;;;3.92;2.40;;;;;;;;;;21221135;27;20552;-75
2022/07/22 07:03:54;;;;;;;3.60;2.20;;;;;;;;;;21188631;27;20557;-75
2022/07/22 07:13:56;;;;;;;4.40;2.45;;;;;;;;;;21205526;27;20196;-74
2022/07/22 07:23:58;;;;;;;3.45;2.05;;;;;;;;;;21221266;27;20560;-75
2022/07/22 07:34:02;;;;;;;3.58;2.40;;;;;;;;;;21220856;27;20210;-74
2022/07/22 07:44:04;;;;;;;6.93;2.40;;;;;;;;;;21228058;27;20206;-75
2022/07/22 07:54:06;;;;;;;4.68;2.47;;;;;;;;;;21237270;27;20576;-74
2022/07/22 08:04:08;;;;;;;4.43;2.25;;;;;;;;;;21236825;27;20229;-71
2022/07/22 08:14:10;;;;;;;3.40;2.45;;;;;;;;;;21237084;27;20623;-71
2022/07/22 08:24:18;;;;;;;5.53;2.55;;;;;;;;;;21253110;27;20219;-71
2022/07/22 08:34:20;;;;;;;3.20;2.40;;;;;;;;;;21250917;27;20218;-71
2022/07/22 08:44:22;;;;;;;4.78;2.22;;;;;;;;;;21251306;27;20703;-70
2022/07/22 08:54:47;;;;;;;5.63;3.05;;;;;;;;;;21216012;27;20293;-71
2022/07/22 09:05:04;;;;;;;2.65;2.38;;;24.90;99.90;;;;;;21231987;27;20220;-71
2022/07/22 09:15:06;;;;;;;4.43;3.03;;;25.60;99.90;;;;;;21231037;27;20204;-70
2022/07/22 09:25:33;;;;;;;5.22;3.30;;;25.30;99.90;;;;;;21247769;27;20226;-71
2022/07/22 09:36:02;;;;;;;5.80;2.50;;;;;;;;;;21223988;27;20274;-71
2022/07/22 09:46:04;;;;;;;4.13;2.15;;;;;;;;;;21227909;27;20214;-71
2022/07/22 09:56:25;;;;;;;3.08;2.13;;;;;;;;;;21247040;27;20246;-71
2022/07/22 10:06:27;;;;;;;5.13;2.80;;;;;;;;;;21225793;27;20220;-70
2022/07/22 10:16:30;;;;;;;4.00;2.63;;;26.40;99.90;;;;;;21208893;27;20217;-69
2022/07/22 10:26:52;;;;;;;3.40;2.58;;;;;;;;;;21225239;27;20247;-69
2022/07/22 10:36:53;;;;;;;3.00;2.25;;;;;;;;;;21241465;27;20455;-69
2022/07/22 10:46:58;;;;;;;4.22;2.22;;;27.30;99.90;;;;;;21242417;27;20239;-70
2022/07/22 10:57:00;;;;;;;3.65;2.83;;;;;;;;;;21241819;27;20228;-69
2022/07/22 11:07:03;;;;;;;4.10;2.72;;;;;;;;;;21239417;27;20229;-70
2022/07/22 11:17:09;;;;;;;3.60;2.40;;;;;;;;;;21221098;27;20217;-70
2022/07/22 11:27:15;;;;;;;4.43;2.00;;;;;;;;;;21239332;27;20218;-69
2022/07/22 11:37:19;;;;;;;3.83;1.95;;;28.10;99.90;;;;;;21238296;28;20696;-69
2022/07/22 11:47:22;;;;;;;2.88;1.98;;;;;;;;;;21238415;28;20321;-70
2022/07/22 11:57:24;;;;;;;3.10;2.05;;;;;;;;;;21238307;28;20202;-70
2022/07/22 12:07:25;;;;;;;3.33;1.98;;;;;;;;;;21204571;28;20267;-70
2022/07/22 12:17:27;;;;;;;2.58;2.00;;;29.00;98.10;;;;;;21190066;28;20290;-70
2022/07/22 12:27:30;;;;;;;2.88;2.00;;;;;;;;;;21156432;28;20223;-69
2022/07/22 12:37:55;;;;;;;2.92;1.77;;;;;;;;;;21146670;27;20279;-69
2022/07/22 12:48:00;;;;;;;2.83;1.80;;;;;;;;;;21248968;27;20223;-69
2022/07/22 12:58:02;;;;;;;3.38;2.00;;;;;;;;;;21229272;27;20597;-69
2022/07/22 13:08:04;;;;;;;2.30;1.48;;;;;;;;;;21229394;27;20642;-69
2022/07/22 13:18:06;;;;;;;2.28;1.77;;;;;;;;;;21147557;28;20273;-69
2022/07/22 13:28:07;;;;;;;2.03;1.60;;;;;;;;;;21159726;28;20578;-71
2022/07/22 13:38:09;;;;;;;2.45;1.88;;;;;;;;;;21140568;28;20212;-68
2022/07/22 13:48:11;;;;;;;3.40;1.42;;;;;;;;;;21161131;28;20220;-70
2022/07/22 13:58:13;;;;;;;2.35;1.30;;;;;;;;;;21137542;28;20216;-70
2022/07/22 14:08:14;;;;;;;3.13;1.33;;;;;;;;;;21160753;27;20777;-75
2022/07/22 14:18:16;;;;;;;1.88;1.58;;;;;;;;;;21196177;27;20280;-71
2022/07/22 14:28:18;;;;;;;2.35;1.50;;;;;;;;;;21242748;27;20244;-73
2022/07/22 14:38:20;;;;;;;2.63;1.80;;;;;;;;;;21242482;27;20264;-73
2022/07/22 14:48:21;;;;;;;2.10;1.40;;;;;;;;;;21241896;27;20215;-74
2022/07/22 14:58:23;;;;;;;2.40;1.42;;;;;;;;;;21241941;27;20240;-73
2022/07/22 15:08:25;;;;;;;2.58;1.73;;;;;;;;;;21137610;28;20258;-72
2022/07/22 15:18:27;;;;;;;2.97;1.48;;;;;;;;;;21117127;28;20200;-70
2022/07/22 15:28:29;;;;;;;1.85;1.40;;;;;;;;;;21162572;27;20268;-71
2022/07/22 15:38:31;;;;;;;2.20;1.40;;;;;;;;;;21186537;27;20280;-72
2022/07/22 15:48:32;;;;;;;1.98;1.30;;;;;;;;;;21150348;28;20578;-71
2022/07/22 16:08:55;;;;;;;1.60;1.15;;;;;;;;;;21168193;28;20208;-71
2022/07/22 16:18:57;;;;;;;2.65;1.45;;;;;;;;;;21170012;28;20180;-71
2022/07/22 16:28:59;;;;;;;1.80;1.17;;;;;;;;;;21168441;28;20261;-71
2022/07/22 16:39:00;;;;;;;2.08;1.30;;;;;;;;;;21168246;28;20659;-72
2022/07/22 16:49:03;;;;;;;1.48;1.05;;;;;;;;;;21166384;28;20212;-70
2022/07/22 16:59:04;;;;;;;3.40;1.67;;;;;;;;;;21138215;28;20245;-71
2022/07/22 17:09:07;;;;;;;3.13;1.45;;;;;;;;;;21126103;27;20589;-72
2022/07/22 17:19:10;;;;;;;2.05;1.30;;;;;;;;;;21171467;27;20289;-72
2022/07/22 17:29:16;;;;;;;2.80;1.40;;;;;;;;;;21147581;27;20239;-71
2022/07/22 17:39:18;;;;;;;3.38;1.55;;;;;;;;;;21154879;27;20735;-71
2022/07/22 17:49:20;;;;;;;1.92;1.38;;;;;;;;;;21159933;28;20265;-73
2022/07/22 17:59:22;;;;;;;2.50;1.70;;;;;;;;;;21139477;28;20225;-73
2022/07/22 18:09:23;;;;;;;2.03;1.40;;;;;;;;;;21116722;28;20250;-73
2022/07/22 18:19:25;;;;;;;3.53;1.35;;;;;;;;;;21100266;28;20247;-72
2022/07/22 18:29:27;;;;;;;5.18;1.55;;;;;;;;;;21153864;22;20216;-74
2022/07/22 18:39:29;;;;;;;6.40;2.10;;;;;;;;;;21234938;27;20227;-74
2022/07/22 18:49:30;;;;;;;3.58;1.90;;;;;;;;;;21233945;27;20211;-74
2022/07/22 18:59:33;;;;;;;2.45;1.80;;;;;;;;;;21209060;27;20580;-73
2022/07/22 19:09:34;;;;;;;2.92;1.60;;;;;;;;;;21232160;27;20236;-72
2022/07/22 19:19:36;;;;;;;2.65;1.95;;;;;;;;;;21231904;27;20350;-73
2022/07/22 19:29:38;;;;;;;2.42;1.58;;;;;;;;;;21180608;27;20280;-72
2022/07/22 19:39:39;;;;;;;2.50;1.80;;;;;;;;;;21217200;27;20211;-72
2022/07/22 19:49:41;;;;;;;4.32;1.75;;;;;;;;;;21236131;27;20222;-71
2022/07/22 19:59:43;;;;;;;8.30;2.88;;;;;;;;;;21226430;27;20693;-71
2022/07/22 20:09:44;;;;;;;4.97;2.03;;;;;;;;;;21212404;27;20211;-71
2022/07/22 20:19:46;;;;;;;2.45;1.55;;;;;;;;;;21194267;27;20215;-71
2022/07/22 20:29:48;;;;;;;4.05;2.10;;;;;;;;;;21226545;27;20708;-71
2022/07/22 20:39:49;;;;;;;6.05;1.73;;;;;;;;;;21208849;27;20211;-72
2022/07/22 20:49:51;;;;;;;2.80;1.60;;;;;;;;;;21233348;27;20693;-71
2022/07/22 20:59:54;;;;;;;2.55;1.90;;;;;;;;;;21222616;27;20211;-71
2022/07/22 21:09:56;;;;;;;2.63;1.80;;;;;;;;;;21224975;27;20266;-71
2022/07/22 21:19:58;;;;;;;2.78;1.58;;;;;;;;;;21222870;27;20257;-71
2022/07/22 21:30:02;;;;;;;2.53;1.70;;;;;;;;;;21212549;27;20276;-73
2022/07/22 21:40:07;;;;;;;3.83;2.03;;;;;;;;;;21244007;27;20272;-71
2022/07/22 21:50:09;;;;;;;2.92;2.00;;;;;;;;;;21228386;27;20235;-71
2022/07/22 22:00:11;;;;;;;2.30;1.80;;;;;;;;;;21244087;27;20266;-73
2022/07/22 22:10:13;;;;;;;3.15;2.13;;;;;;;;;;21243850;27;20594;-71
2022/07/22 22:20:15;;;;;;;2.50;1.75;;;;;;;;;;21244529;27;20217;-72
2022/07/22 22:30:17;;;;;;;2.70;2.05;;;26.70;99.90;;;;;;21243739;27;20218;-71
2022/07/22 22:40:19;;;;;;;2.70;1.83;;;;;;;;;;21244783;27;20635;-72
2022/07/22 22:50:21;;;;;;;4.07;1.90;;;;;;;;;;21224282;27;20219;-71
2022/07/22 23:00:22;;;;;;;2.63;1.60;;;;;;;;;;21223236;27;20585;-73
2022/07/22 23:10:24;;;;;;;2.13;1.70;;;;;;;;;;21241410;27;20242;-73
2022/07/22 23:30:46;;;;;;;2.80;1.70;;;;;;;;;;21239588;27;20637;-71
2022/07/22 23:40:48;;;;;;;4.97;1.83;;;;;;;;;;21238913;27;20261;-71
2022/07/22 23:50:50;;;;;;;3.85;2.05;;;;;;;;;;21238276;27;20230;-72
